createdAt,value
2018-06-13T00:00:17.400Z,101047.95
2018-06-13T00:02:46.701Z,101052.55
2018-06-13T00:05:15.987Z,101060.73
2018-06-13T00:07:45.213Z,101061.01
2018-06-13T00:10:14.337Z,101056.28
2018-06-13T00:12:43.483Z,101062.73
2018-06-13T00:15:12.578Z,101061.23
2018-06-13T00:17:41.764Z,101065.67
2018-06-13T00:20:10.933Z,101062.06
2018-06-13T00:22:40.028Z,101062.56
2018-06-13T00:25:09.266Z,101065.06
2018-06-13T00:27:38.464Z,101066.54
2018-06-13T00:30:07.579Z,101071.45
2018-06-13T00:32:36.797Z,101069.74
2018-06-13T00:35:05.916Z,101076.38
2018-06-13T00:37:35.049Z,101073.91
2018-06-13T00:40:04.188Z,101074.28
2018-06-13T00:42:33.300Z,101075.55
2018-06-13T00:45:02.436Z,101076.27
2018-06-13T00:47:38.313Z,101080.06
2018-06-13T00:50:07.466Z,101082.53
2018-06-13T00:52:36.588Z,101084.70
2018-06-13T00:55:06.045Z,101087.69
2018-06-13T00:57:35.171Z,101085.84
2018-06-13T01:00:04.842Z,101085.56
2018-06-13T01:02:33.986Z,101087.76
2018-06-13T01:05:03.224Z,101088.67
2018-06-13T01:07:32.409Z,101083.37
2018-06-13T01:10:01.591Z,101082.45
2018-06-13T01:12:30.707Z,101088.82
2018-06-13T01:14:59.846Z,101087.27
2018-06-13T01:17:29.053Z,101091.42
2018-06-13T01:19:58.177Z,101097.22
2018-06-13T01:22:27.408Z,101092.47
2018-06-13T01:25:09.750Z,101090.00
2018-06-13T01:27:39.994Z,101082.82
2018-06-13T01:30:09.227Z,101084.29
2018-06-13T01:32:38.428Z,101089.00
2018-06-13T01:35:07.589Z,101089.92
2018-06-13T01:37:36.755Z,101089.17
2018-06-13T01:40:06.201Z,101091.76
2018-06-13T01:42:35.399Z,101083.55
2018-06-13T01:45:04.582Z,101081.80
2018-06-13T01:47:33.746Z,101086.78
2018-06-13T01:50:02.907Z,101081.75
2018-06-13T01:52:32.066Z,101087.17
2018-06-13T01:55:01.163Z,101093.27
2018-06-13T01:57:30.307Z,101090.52
2018-06-13T01:59:59.547Z,101088.37
2018-06-13T02:02:28.666Z,101088.66
2018-06-13T02:04:57.894Z,101088.66
2018-06-13T02:07:27.008Z,101088.57
2018-06-13T02:09:56.114Z,101090.49
2018-06-13T02:12:25.622Z,101081.80
2018-06-13T02:14:54.853Z,101089.48
2018-06-13T02:17:24.032Z,101091.91
2018-06-13T02:19:53.123Z,101087.55
2018-06-13T02:22:22.276Z,101087.30
2018-06-13T02:24:51.426Z,101096.36
2018-06-13T02:27:20.568Z,101094.92
2018-06-13T02:29:49.704Z,101098.80
2018-06-13T02:32:19.725Z,101103.62
2018-06-13T02:34:48.881Z,101104.02
2018-06-13T02:37:18.145Z,101103.53
2018-06-13T02:39:47.340Z,101100.59
2018-06-13T02:42:16.723Z,101104.58
2018-06-13T02:44:45.939Z,101099.55
2018-06-13T02:47:15.117Z,101099.35
2018-06-13T02:49:44.290Z,101102.03
2018-06-13T02:52:13.524Z,101107.05
2018-06-13T02:54:42.693Z,101106.88
2018-06-13T02:57:11.862Z,101105.27
2018-06-13T02:59:41.019Z,101107.42
2018-06-13T03:02:10.259Z,101108.98
2018-06-13T03:04:39.444Z,101106.19
2018-06-13T03:07:08.603Z,101102.96
2018-06-13T03:09:37.761Z,101106.25
2018-06-13T03:12:07.352Z,101103.42
2018-06-13T03:14:36.516Z,101102.30
2018-06-13T03:17:05.695Z,101101.63
2018-06-13T03:19:34.819Z,101111.67
2018-06-13T03:22:03.948Z,101107.87
2018-06-13T03:24:33.113Z,101108.64
2018-06-13T03:27:02.246Z,101110.44
2018-06-13T03:29:31.421Z,101114.24
2018-06-13T03:32:00.647Z,101115.20
2018-06-13T03:34:29.843Z,101115.80
2018-06-13T03:36:59.028Z,101114.64
2018-06-13T03:39:28.112Z,101122.72
2018-06-13T03:41:57.240Z,101120.75
2018-06-13T03:44:46.160Z,101115.03
2018-06-13T03:47:19.518Z,101115.44
2018-06-13T03:49:48.765Z,101120.58
2018-06-13T03:52:17.890Z,101121.27
2018-06-13T03:54:47.147Z,101121.22
2018-06-13T03:57:16.410Z,101115.64
2018-06-13T03:59:45.518Z,101120.11
2018-06-13T04:02:14.703Z,101119.02
2018-06-13T04:04:43.845Z,101114.93
2018-06-13T04:07:13.101Z,101120.05
2018-06-13T04:09:42.264Z,101122.26
2018-06-13T04:12:11.377Z,101117.32
2018-06-13T04:14:40.559Z,101127.59
2018-06-13T04:17:09.712Z,101124.33
2018-06-13T04:19:38.894Z,101122.17
2018-06-13T04:22:08.092Z,101120.75
2018-06-13T04:24:37.482Z,101120.75
2018-06-13T04:27:06.631Z,101117.19
2018-06-13T04:29:35.784Z,101119.42
2018-06-13T04:32:04.969Z,101112.64
2018-06-13T04:34:34.151Z,101111.55
2018-06-13T04:37:03.388Z,101115.17
2018-06-13T04:39:32.508Z,101119.17
2018-06-13T04:42:01.875Z,101115.13
2018-06-13T04:44:31.015Z,101107.94
2018-06-13T04:47:00.253Z,101098.46
2018-06-13T04:49:29.376Z,101105.80
2018-06-13T04:51:58.560Z,101107.08
2018-06-13T04:54:27.667Z,101113.57
2018-06-13T04:56:56.825Z,101125.34
2018-06-13T04:59:25.938Z,101124.58
2018-06-13T05:01:55.093Z,101127.23
2018-06-13T05:04:24.378Z,101126.09
2018-06-13T05:06:53.559Z,101126.27
2018-06-13T05:09:22.784Z,101117.15
2018-06-13T05:11:51.984Z,101116.01
2018-06-13T05:14:21.172Z,101127.41
2018-06-13T05:16:50.373Z,101129.42
2018-06-13T05:19:19.578Z,101128.56
2018-06-13T05:21:48.746Z,101124.20
2018-06-13T05:24:17.945Z,101126.77
2018-06-13T05:26:47.164Z,101133.78
2018-06-13T05:29:16.301Z,101133.28
2018-06-13T05:31:45.452Z,101134.52
2018-06-13T05:34:14.692Z,101138.19
2018-06-13T05:36:43.853Z,101133.84
2018-06-13T05:39:12.982Z,101140.10
2018-06-13T05:41:43.109Z,101138.86
2018-06-13T05:44:12.509Z,101142.13
2018-06-13T05:46:42.159Z,101134.98
2018-06-13T05:49:11.403Z,101142.63
2018-06-13T05:51:40.676Z,101138.67
2018-06-13T05:54:10.859Z,101147.39
2018-06-13T05:56:41.060Z,101147.39
2018-06-13T05:59:11.209Z,101155.00
2018-06-13T06:01:40.407Z,101148.53
2018-06-13T06:04:09.560Z,101147.66
2018-06-13T06:06:38.708Z,101151.84
2018-06-13T06:09:09.481Z,101151.56
2018-06-13T06:11:38.595Z,101149.87
2018-06-13T06:14:07.794Z,101148.08
2018-06-13T06:16:37.033Z,101155.27
2018-06-13T06:19:06.193Z,101164.48
2018-06-13T06:21:35.486Z,101174.07
2018-06-13T06:24:04.680Z,101169.90
2018-06-13T06:26:33.852Z,101165.11
2018-06-13T06:29:03.082Z,101167.33
2018-06-13T06:31:32.230Z,101170.67
2018-06-13T06:34:01.354Z,101172.04
2018-06-13T06:36:30.486Z,101173.73
2018-06-13T06:38:59.712Z,101166.72
2018-06-13T06:41:28.868Z,101175.61
2018-06-13T06:43:58.141Z,101176.34
2018-06-13T06:46:27.359Z,101172.61
2018-06-13T06:48:56.599Z,101179.44
2018-06-13T06:51:25.772Z,101187.05
2018-06-13T06:53:55.190Z,101185.31
2018-06-13T06:56:24.381Z,101187.52
2018-06-13T06:58:53.747Z,101176.58
2018-06-13T07:01:22.902Z,101185.53
2018-06-13T07:03:52.175Z,101182.66
2018-06-13T07:06:21.453Z,101177.08
2018-06-13T07:08:50.627Z,101183.25
2018-06-13T07:11:19.823Z,101188.37
2018-06-13T07:13:48.992Z,101185.63
2018-06-13T07:16:18.157Z,101185.31
2018-06-13T07:18:47.359Z,101189.70
2018-06-13T07:21:16.559Z,101185.87
2018-06-13T07:23:45.815Z,101184.95
2018-06-13T07:26:15.110Z,101193.71
2018-06-13T07:28:44.245Z,101193.50
2018-06-13T07:31:13.512Z,101191.14
2018-06-13T07:33:42.786Z,101188.73
2018-06-13T07:36:12.123Z,101193.81
2018-06-13T07:38:41.270Z,101189.08
2018-06-13T07:41:10.517Z,101192.70
2018-06-13T07:43:39.674Z,101194.58
2018-06-13T07:46:08.859Z,101198.91
2018-06-13T07:48:38.037Z,101198.63
2018-06-13T07:51:07.201Z,101196.03
2018-06-13T07:53:36.413Z,101190.19
2018-06-13T07:56:05.730Z,101199.81
2018-06-13T07:58:34.919Z,101207.88
2018-06-13T08:01:04.895Z,101206.37
2018-06-13T08:03:34.079Z,101209.30
2018-06-13T08:06:03.236Z,101218.70
2018-06-13T08:08:32.417Z,101213.20
2018-06-13T08:11:01.597Z,101213.48
2018-06-13T08:16:27.372Z,101214.47
2018-06-13T08:18:56.638Z,101223.16
2018-06-13T08:21:25.882Z,101218.25
2018-06-13T08:23:55.090Z,101229.64
2018-06-13T08:26:24.218Z,101229.75
2018-06-13T08:28:53.361Z,101236.09
2018-06-13T08:31:22.531Z,101239.36
2018-06-13T08:33:51.711Z,101235.91
2018-06-13T08:36:20.893Z,101246.58
2018-06-13T08:38:50.127Z,101246.95
2018-06-13T08:41:19.253Z,101247.72
2018-06-13T08:43:48.420Z,101244.95
2018-06-13T08:46:17.525Z,101244.59
2018-06-13T08:48:46.618Z,101234.77
2018-06-13T08:51:15.777Z,101244.88
2018-06-13T08:53:44.971Z,101236.48
2018-06-13T08:56:14.197Z,101229.60
2018-06-13T08:58:43.364Z,101236.81
2018-06-13T09:01:13.518Z,101239.47
2018-06-13T09:03:42.699Z,101242.23
2018-06-13T09:06:12.000Z,101244.80
2018-06-13T09:08:41.200Z,101248.70
2018-06-13T09:11:10.504Z,101247.13
2018-06-13T09:13:39.758Z,101244.30
2018-06-13T09:19:25.088Z,101244.56
2018-06-13T09:21:54.220Z,101248.77
2018-06-13T09:24:24.948Z,101243.73
2018-06-13T09:26:54.144Z,101248.67
2018-06-13T09:29:23.246Z,101252.46
2018-06-13T09:31:52.402Z,101245.44
2018-06-13T09:34:21.562Z,101245.83
2018-06-13T09:36:50.752Z,101242.48
2018-06-13T09:39:19.901Z,101242.59
2018-06-13T09:41:54.210Z,101245.44
2018-06-13T09:44:23.420Z,101235.12
2018-06-13T09:46:52.569Z,101233.60
2018-06-13T09:49:21.742Z,101241.38
2018-06-13T09:51:50.921Z,101243.56
2018-06-13T09:54:20.070Z,101250.26
2018-06-13T09:56:50.451Z,101240.64
2018-06-13T09:59:20.451Z,101246.60
2018-06-13T10:01:56.306Z,101246.80
2018-06-13T10:04:25.771Z,101251.30
2018-06-13T10:06:55.234Z,101241.89
2018-06-13T10:09:24.462Z,101252.72
2018-06-13T10:11:53.808Z,101247.42
2018-06-13T10:14:23.131Z,101245.52
2018-06-13T10:16:52.284Z,101240.10
2018-06-13T10:19:21.558Z,101246.86
2018-06-13T10:21:51.023Z,101252.50
2018-06-13T10:24:20.311Z,101254.13
2018-06-13T10:26:49.839Z,101252.48
2018-06-13T10:29:19.162Z,101250.33
2018-06-13T10:31:48.527Z,101253.81
2018-06-13T10:34:18.352Z,101252.89
2018-06-13T10:36:47.455Z,101254.14
2018-06-13T10:39:17.964Z,101264.25
2018-06-13T10:41:49.470Z,101259.56
2018-06-13T10:44:24.683Z,101266.69
2018-06-13T10:46:57.055Z,101264.22
2018-06-13T10:49:34.929Z,101263.67
2018-06-13T10:52:06.801Z,101265.39
2018-06-13T10:54:39.565Z,101267.13
2018-06-13T10:57:12.684Z,101270.63
2018-06-13T10:59:43.774Z,101271.97
2018-06-13T11:02:13.818Z,101273.78
2018-06-13T11:04:46.629Z,101277.30
2018-06-13T11:07:18.769Z,101275.22
2018-06-13T11:09:50.026Z,101281.56
2018-06-13T11:12:19.748Z,101287.94
2018-06-13T11:14:49.757Z,101284.98
2018-06-13T11:17:19.802Z,101282.50
2018-06-13T11:19:49.492Z,101281.55
2018-06-13T11:22:18.938Z,101270.48
2018-06-13T11:24:48.479Z,101280.41
2018-06-13T11:27:17.616Z,101267.78
2018-06-13T11:29:46.869Z,101270.30
2018-06-13T11:32:16.165Z,101271.22
2018-06-13T11:34:45.523Z,101276.86
2018-06-13T11:37:15.017Z,101278.99
2018-06-13T11:39:44.458Z,101279.55
2018-06-13T11:42:13.714Z,101277.25
2018-06-13T11:44:43.015Z,101272.98
2018-06-13T11:47:12.215Z,101281.75
2018-06-13T11:49:41.480Z,101275.39
2018-06-13T11:52:10.739Z,101282.48
2018-06-13T11:54:39.889Z,101284.63
2018-06-13T11:57:09.461Z,101277.95
2018-06-13T11:59:38.662Z,101278.25
2018-06-13T12:02:07.882Z,101272.24
2018-06-13T12:04:37.032Z,101272.28
2018-06-13T12:07:06.370Z,101266.72
2018-06-13T12:09:36.178Z,101264.11
2018-06-13T12:12:05.679Z,101268.30
2018-06-13T12:14:34.979Z,101266.66
2018-06-13T12:17:04.220Z,101265.78
2018-06-13T12:19:33.589Z,101265.44
2018-06-13T12:22:02.787Z,101254.81
2018-06-13T12:24:31.933Z,101252.55
2018-06-13T12:27:01.107Z,101245.82
2018-06-13T12:29:30.310Z,101250.14
2018-06-13T12:31:59.747Z,101257.11
2018-06-13T12:34:29.047Z,101259.01
2018-06-13T12:36:58.273Z,101257.92
2018-06-13T12:39:28.738Z,101262.66
2018-06-13T12:41:58.066Z,101260.08
2018-06-13T12:44:27.698Z,101258.91
2018-06-13T12:46:56.865Z,101251.27
2018-06-13T12:49:26.020Z,101254.09
2018-06-13T12:51:55.258Z,101258.89
2018-06-13T12:54:24.508Z,101258.84
2018-06-13T12:56:53.981Z,101253.66
2018-06-13T12:59:23.088Z,101259.63
2018-06-13T13:01:52.297Z,101253.20
2018-06-13T13:04:21.453Z,101254.11
2018-06-13T13:06:50.697Z,101255.48
2018-06-13T13:09:19.877Z,101256.41
2018-06-13T13:11:49.112Z,101249.12
2018-06-13T13:14:18.304Z,101253.70
2018-06-13T13:16:47.501Z,101251.39
2018-06-13T13:19:16.695Z,101242.77
2018-06-13T13:21:45.810Z,101242.82
2018-06-13T13:24:15.060Z,101240.38
2018-06-13T13:26:44.209Z,101241.97
2018-06-13T13:29:13.421Z,101235.86
2018-06-13T13:31:42.762Z,101238.20
2018-06-13T13:34:11.968Z,101232.91
2018-06-13T13:36:41.111Z,101245.56
2018-06-13T13:39:11.227Z,101238.28
2018-06-13T13:41:41.108Z,101235.44
2018-06-13T13:44:10.357Z,101237.08
2018-06-13T13:46:39.483Z,101237.39
2018-06-13T13:49:08.631Z,101244.34
2018-06-13T13:51:37.820Z,101242.66
2018-06-13T13:54:07.031Z,101248.99
2018-06-13T13:56:36.137Z,101247.54
2018-06-13T13:59:05.353Z,101246.49
2018-06-13T14:01:34.661Z,101243.44
2018-06-13T14:04:03.790Z,101246.41
2018-06-13T14:06:33.000Z,101242.34
2018-06-13T14:09:02.400Z,101242.78
2018-06-13T14:11:31.585Z,101240.64
2018-06-13T14:14:00.795Z,101239.75
2018-06-13T14:16:30.710Z,101234.86
2018-06-13T14:18:59.887Z,101240.33
2018-06-13T14:21:29.454Z,101239.16
2018-06-13T14:23:58.812Z,101247.67
2018-06-13T14:26:28.008Z,101242.38
2018-06-13T14:28:57.199Z,101240.13
2018-06-13T14:31:26.385Z,101238.09
2018-06-13T14:33:55.561Z,101238.24
2018-06-13T14:36:24.691Z,101225.05
2018-06-13T14:38:54.154Z,101234.24
2018-06-13T14:41:23.304Z,101230.39
2018-06-13T14:43:52.437Z,101223.45
2018-06-13T14:46:21.731Z,101234.72
2018-06-13T14:48:50.953Z,101229.50
2018-06-13T14:51:20.211Z,101237.67
2018-06-13T14:53:49.380Z,101240.13
2018-06-13T14:56:23.620Z,101231.39
2018-06-13T14:58:52.766Z,101237.61
2018-06-13T15:01:22.057Z,101248.43
2018-06-13T15:03:51.234Z,101246.05
2018-06-13T15:06:20.585Z,101250.23
2018-06-13T15:08:49.857Z,101238.81
2018-06-13T15:11:19.039Z,101243.06
2018-06-13T15:13:48.250Z,101238.81
2018-06-13T15:16:17.380Z,101250.50
2018-06-13T15:18:46.867Z,101243.45
2018-06-13T15:21:16.204Z,101244.45
2018-06-13T15:23:45.720Z,101239.59
2018-06-13T15:26:14.939Z,101240.94
2018-06-13T15:28:44.139Z,101237.65
2018-06-13T15:31:13.453Z,101232.64
2018-06-13T15:33:42.658Z,101234.19
2018-06-13T15:36:11.818Z,101240.77
2018-06-13T15:38:40.987Z,101237.70
2018-06-13T15:41:10.117Z,101237.80
2018-06-13T15:43:39.295Z,101234.56
2018-06-13T15:46:08.471Z,101243.85
2018-06-13T15:48:37.705Z,101231.84
2018-06-13T15:51:06.855Z,101236.39
2018-06-13T15:53:35.992Z,101234.19
2018-06-13T15:56:05.374Z,101240.31
2018-06-13T15:58:34.767Z,101243.23
2018-06-13T16:01:03.990Z,101236.30
2018-06-13T16:03:33.155Z,101236.66
2018-06-13T16:06:02.290Z,101240.38
2018-06-13T16:08:31.450Z,101234.60
2018-06-13T16:11:00.930Z,101238.30
2018-06-13T16:13:30.135Z,101236.95
2018-06-13T16:16:01.940Z,101242.88
2018-06-13T16:18:31.255Z,101241.53
2018-06-13T16:21:00.483Z,101242.08
2018-06-13T16:23:29.778Z,101247.27
2018-06-13T16:25:59.173Z,101247.27
2018-06-13T16:28:28.846Z,101247.20
2018-06-13T16:30:58.112Z,101244.88
2018-06-13T16:33:28.087Z,101244.70
2018-06-13T16:35:57.894Z,101248.83
2018-06-13T16:38:27.073Z,101254.11
2018-06-13T16:40:56.519Z,101250.07
2018-06-13T16:43:25.874Z,101253.78
2018-06-13T16:45:55.386Z,101260.13
2018-06-13T16:48:24.895Z,101256.40
2018-06-13T16:51:05.439Z,101255.42
2018-06-13T16:53:48.235Z,101260.87
2018-06-13T16:56:17.670Z,101268.05
2018-06-13T16:58:47.402Z,101255.38
2018-06-13T17:01:16.781Z,101262.38
2018-06-13T17:03:46.298Z,101261.63
2018-06-13T17:06:15.831Z,101265.63
2018-06-13T17:08:45.377Z,101272.77
2018-06-13T17:11:15.123Z,101277.49
2018-06-13T17:13:45.408Z,101285.38
2018-06-13T17:16:14.875Z,101283.11
2018-06-13T17:18:44.108Z,101285.78
2018-06-13T17:21:13.438Z,101290.59
2018-06-13T17:23:42.978Z,101293.12
2018-06-13T17:26:12.282Z,101288.80
2018-06-13T17:28:42.586Z,101289.23
2018-06-13T17:31:11.874Z,101300.58
2018-06-13T17:33:41.001Z,101307.55
2018-06-13T17:36:10.237Z,101305.52
2018-06-13T17:38:40.210Z,101309.85
2018-06-13T17:41:09.444Z,101307.33
2018-06-13T17:43:38.622Z,101310.54
2018-06-13T17:46:07.789Z,101305.41
2018-06-13T17:48:36.940Z,101308.66
2018-06-13T17:51:06.236Z,101305.09
2018-06-13T17:53:35.408Z,101303.35
2018-06-13T17:56:04.702Z,101309.64
2018-06-13T17:58:33.888Z,101310.65
2018-06-13T18:01:03.095Z,101312.63
2018-06-13T18:03:32.243Z,101307.44
2018-06-13T18:06:01.793Z,101312.59
2018-06-13T18:08:31.118Z,101304.66
2018-06-13T18:11:00.321Z,101302.16
2018-06-13T18:13:29.756Z,101301.41
2018-06-13T18:15:58.915Z,101307.51
2018-06-13T18:18:28.113Z,101306.53
2018-06-13T18:20:57.490Z,101302.81
2018-06-13T18:23:26.623Z,101292.34
2018-06-13T18:25:55.911Z,101292.02
2018-06-13T18:28:25.035Z,101294.72
2018-06-13T18:30:54.242Z,101294.79
2018-06-13T18:33:23.432Z,101294.92
2018-06-13T18:35:52.601Z,101298.98
2018-06-13T18:38:21.871Z,101297.23
2018-06-13T18:40:51.065Z,101284.54
2018-06-13T18:43:20.196Z,101288.76
2018-06-13T18:45:49.394Z,101287.53
2018-06-13T18:48:25.045Z,101285.93
2018-06-13T18:50:54.262Z,101287.44
2018-06-13T18:53:23.396Z,101289.69
2018-06-13T18:55:52.603Z,101294.86
2018-06-13T18:58:21.713Z,101293.16
2018-06-13T19:00:51.026Z,101291.94
2018-06-13T19:03:20.158Z,101295.69
2018-06-13T19:05:49.560Z,101295.02
2018-06-13T19:08:19.089Z,101288.83
2018-06-13T19:10:48.460Z,101295.90
2018-06-13T19:13:17.657Z,101298.11
2018-06-13T19:15:47.142Z,101302.91
2018-06-13T19:18:16.608Z,101296.81
2018-06-13T19:20:45.849Z,101296.92
2018-06-13T19:23:15.109Z,101296.09
2018-06-13T19:25:44.425Z,101297.16
2018-06-13T19:28:13.859Z,101303.98
2018-06-13T19:30:43.221Z,101296.59
2018-06-13T19:33:12.621Z,101300.86
2018-06-13T19:35:41.917Z,101298.98
2018-06-13T19:38:11.306Z,101306.02
2018-06-13T19:40:40.619Z,101304.78
2018-06-13T19:43:15.205Z,101317.52
2018-06-13T19:45:44.574Z,101318.19
2018-06-13T19:48:19.107Z,101327.44
2018-06-13T19:50:48.474Z,101321.23
2018-06-13T19:53:22.928Z,101311.52
2018-06-13T19:55:57.458Z,101320.20
2018-06-13T19:58:26.700Z,101325.91
2018-06-13T20:00:55.929Z,101326.47
2018-06-13T20:03:30.433Z,101332.59
2018-06-13T20:05:59.634Z,101327.05
2018-06-13T20:08:28.893Z,101329.91
2018-06-13T20:10:58.431Z,101328.30
2018-06-13T20:13:32.884Z,101333.72
2018-06-13T20:16:07.471Z,101338.55
2018-06-13T20:18:41.882Z,101339.60
2018-06-13T20:21:11.960Z,101345.02
2018-06-13T20:23:42.240Z,101346.73
2018-06-13T20:26:16.756Z,101341.50
2018-06-13T20:28:50.993Z,101344.34
2018-06-13T20:31:25.197Z,101350.45
2018-06-13T20:33:54.369Z,101353.76
2018-06-13T20:36:24.755Z,101361.66
2018-06-13T20:38:53.932Z,101364.51
2018-06-13T20:41:23.124Z,101366.95
2018-06-13T20:43:52.385Z,101362.59
2018-06-13T20:46:21.558Z,101360.80
2018-06-13T20:48:50.695Z,101357.63
2018-06-13T20:51:19.949Z,101348.69
2018-06-13T20:53:49.141Z,101350.20
2018-06-13T20:56:18.290Z,101350.48
2018-06-13T20:58:47.428Z,101348.28
2018-06-13T21:01:16.671Z,101345.03
2018-06-13T21:03:45.933Z,101346.55
2018-06-13T21:06:15.187Z,101351.59
2018-06-13T21:08:44.557Z,101347.78
2018-06-13T21:11:13.710Z,101350.62
2018-06-13T21:13:42.959Z,101341.95
2018-06-13T21:16:12.126Z,101338.11
2018-06-13T21:18:41.315Z,101343.61
2018-06-13T21:21:10.471Z,101340.58
2018-06-13T21:23:39.647Z,101339.89
2018-06-13T21:26:08.795Z,101342.82
2018-06-13T21:28:37.959Z,101352.31
2018-06-13T21:31:07.112Z,101348.09
2018-06-13T21:33:36.796Z,101343.73
2018-06-13T21:36:06.040Z,101345.53
2018-06-13T21:38:35.177Z,101342.41
2018-06-13T21:41:04.589Z,101332.72
2018-06-13T21:43:33.730Z,101341.63
2018-06-13T21:46:02.889Z,101343.05
2018-06-13T21:48:32.185Z,101333.19
2018-06-13T21:51:01.404Z,101333.55
2018-06-13T21:53:30.633Z,101329.56
2018-06-13T21:55:59.801Z,101335.47
2018-06-13T21:58:28.925Z,101327.95
2018-06-13T22:00:58.134Z,101340.88
2018-06-13T22:03:27.370Z,101336.02
2018-06-13T22:05:56.584Z,101331.57
2018-06-13T22:08:25.741Z,101333.13
2018-06-13T22:10:54.895Z,101335.14
2018-06-13T22:13:24.145Z,101341.01
2018-06-13T22:15:53.212Z,101343.47
2018-06-13T22:18:22.354Z,101333.94
2018-06-13T22:20:51.584Z,101339.34
2018-06-13T22:23:20.686Z,101339.52
2018-06-13T22:25:49.837Z,101324.20
2018-06-13T22:28:18.940Z,101326.66
2018-06-13T22:30:48.194Z,101324.92
2018-06-13T22:33:17.312Z,101320.74
2018-06-13T22:35:46.483Z,101325.77
2018-06-13T22:38:16.374Z,101326.78
2018-06-13T22:40:45.509Z,101323.46
2018-06-13T22:43:14.669Z,101325.02
2018-06-13T22:45:43.791Z,101322.16
2018-06-13T22:48:12.949Z,101317.97
2018-06-13T22:50:42.600Z,101319.23
2018-06-13T22:53:11.811Z,101312.77
2018-06-13T22:55:41.016Z,101318.80
2018-06-13T22:58:10.115Z,101315.85
2018-06-13T23:01:11.654Z,101315.16
2018-06-13T23:03:41.053Z,101318.03
2018-06-13T23:06:11.234Z,101320.39
2018-06-13T23:08:40.496Z,101317.21
2018-06-13T23:11:09.668Z,101321.28
2018-06-13T23:13:38.820Z,101328.25
2018-06-13T23:16:07.994Z,101329.34
2018-06-13T23:18:37.112Z,101327.80
2018-06-13T23:21:06.335Z,101323.57
2018-06-13T23:23:35.711Z,101322.82
2018-06-13T23:26:04.863Z,101319.62
2018-06-13T23:28:33.948Z,101320.25
2018-06-13T23:31:03.141Z,101320.03
2018-06-13T23:33:32.358Z,101324.09
2018-06-13T23:36:01.679Z,101320.44
2018-06-13T23:38:30.865Z,101316.75
2018-06-13T23:40:59.963Z,101323.25
2018-06-13T23:43:29.254Z,101321.63
2018-06-13T23:45:58.355Z,101325.06
2018-06-13T23:48:27.511Z,101318.09
2018-06-13T23:50:56.597Z,101323.64
2018-06-13T23:53:25.817Z,101317.42
2018-06-13T23:55:54.972Z,101317.66
2018-06-13T23:58:24.183Z,101311.65
